Time;durP1;ratioP1;P1;durP2;ratioP2;P2;SDS_P1;SDS_P2;PMS_P1;PMS_P2;Temp;Humidity;BMP_temperature;BMP_pressure;BME280_temperature;BME280_humidity;BME280_pressure;Samples;Min_cycle;Max_cycle;Signal;HPM_P1;HPM_P2
2022/04/08 00:01:22;;;;;;;4.10;1.50;;;;;;;11.64;72.96;93544.25;5035052;28;20186;-85
2022/04/08 00:03:48;;;;;;;1.33;1.23;;;;;;;11.99;72.32;93582.56;5053097;28;20151;-85
2022/04/08 00:06:14;;;;;;;4.33;1.30;;;;;;;11.91;71.46;93569.84;5035247;28;20177;-85
2022/04/08 00:08:40;;;;;;;1.83;1.23;;;;;;;11.79;71.62;93563.91;5052802;28;20222;-85
2022/04/08 00:11:05;;;;;;;6.93;1.60;;;;;;;11.50;71.93;93540.41;5053144;28;20601;-85
2022/04/08 00:13:31;;;;;;;2.63;1.33;;;;;;;11.65;71.86;93563.50;5052896;28;20198;-85
2022/04/08 00:15:56;;;;;;;3.70;1.30;;;;;;;11.37;71.93;93524.22;5052939;28;20649;-85
2022/04/08 00:18:22;;;;;;;3.07;1.50;;;;;;;11.65;71.96;93577.47;5052717;28;20244;-85
2022/04/08 00:20:47;;;;;;;2.60;1.40;;;;;;;11.79;72.14;93614.00;5052395;28;20179;-85
2022/04/08 00:23:13;;;;;;;1.60;1.30;;;;;;;11.70;72.09;93588.06;5052525;28;20179;-84
2022/04/08 00:25:39;;;;;;;1.67;1.20;;;;;;;11.41;72.08;93557.75;5052469;28;20206;-85
2022/04/08 00:28:04;;;;;;;1.60;1.50;;;;;;;11.65;72.05;93611.75;5052699;28;20175;-84
2022/04/08 00:30:30;;;;;;;1.73;1.20;;;;;;;11.48;71.82;93584.69;5052612;28;20159;-85
2022/04/08 00:32:59;;;;;;;1.60;1.50;;;;;;;11.85;72.48;93636.78;5034707;28;20202;-85
2022/04/08 00:35:25;;;;;;;2.47;1.57;;;;;;;11.96;72.55;93660.34;5052899;28;20163;-85
2022/04/08 00:37:51;;;;;;;1.53;1.30;;;;;;;11.87;72.16;93651.28;5052659;28;20703;-85
2022/04/08 00:40:16;;;;;;;4.80;1.30;;;;;;;11.74;71.92;93633.19;5034734;28;20167;-85
2022/04/08 00:42:43;;;;;;;2.10;1.60;;;;;;;11.67;71.50;93614.94;5034635;28;20202;-85
2022/04/08 00:45:09;;;;;;;3.43;1.33;;;;;;;11.37;71.44;93567.16;5052516;28;20606;-85
2022/04/08 00:47:36;;;;;;;2.00;1.47;;;;;;;11.24;71.90;93581.50;5052511;28;20191;-85
2022/04/08 00:50:04;;;;;;;2.60;1.47;;;;;;;11.68;71.96;93642.06;5052342;28;20159;-86
2022/04/08 00:52:33;;;;;;;1.77;1.40;;;;;;;11.75;71.71;93653.28;5034437;28;20258;-85
2022/04/08 00:55:01;;;;;;;3.20;1.60;;;;;;;11.20;71.60;93555.91;5052344;28;20170;-85
2022/04/08 00:57:28;;;;;;;1.87;1.10;;;;;;;11.29;71.15;93570.25;5052617;28;20641;-85
2022/04/08 00:59:54;;;;;;;1.43;1.33;;;;;;;11.29;70.76;93576.31;5052191;28;20167;-85
2022/04/08 01:02:20;;;;;;;2.70;1.83;;;;;;;11.78;71.19;93646.69;5051567;28;20183;-84
2022/04/08 01:04:45;;;;;;;1.80;1.33;;;;;;;11.21;70.71;93571.47;5051471;28;20163;-84
2022/04/08 01:07:11;;;;;;;1.67;1.30;;;;;;;11.65;70.42;93642.59;5051775;28;20181;-84
2022/04/08 01:09:37;;;;;;;1.37;1.27;;;;;;;11.47;70.62;93616.56;5051484;28;20226;-85
2022/04/08 01:12:02;;;;;;;1.67;1.57;;;;;;;11.29;70.20;93578.94;5052336;28;20209;-84
2022/04/08 01:14:28;;;;;;;2.77;1.70;;;;;;;11.76;70.17;93662.78;5052273;28;20277;-84
2022/04/08 01:16:53;;;;;;;1.67;1.33;;;;;;;11.41;70.06;93597.25;5034169;28;20209;-84
2022/04/08 01:19:18;;;;;;;5.13;2.47;;;;;;;11.87;69.63;93671.56;5051967;28;20995;-84
2022/04/08 01:21:44;;;;;;;1.47;1.37;;;;;;;11.56;69.29;93634.31;5052597;28;20246;-84
2022/04/08 01:24:13;;;;;;;1.90;1.60;;;;;;;11.48;69.77;93632.13;5034170;28;20178;-83
2022/04/08 01:26:40;;;;;;;1.50;1.40;;;;;;;11.37;69.78;93609.31;5052313;28;20166;-84
2022/04/08 01:29:06;;;;;;;3.17;2.20;;;;;;;11.68;69.73;93663.16;5051871;28;20182;-84
2022/04/08 01:31:31;;;;;;;5.13;3.40;;;;;;;11.80;70.08;93686.78;5034056;28;20265;-84
2022/04/08 01:33:56;;;;;;;2.20;1.87;;;;;;;11.46;69.99;93641.31;5033890;28;20207;-84
2022/04/08 01:36:22;;;;;;;3.67;1.87;;;;;;;11.26;69.86;93621.56;5051837;28;20170;-84
2022/04/08 01:38:47;;;;;;;2.57;2.10;;;;;;;11.20;69.96;93614.66;5051891;28;20163;-85
2022/04/08 01:41:16;;;;;;;2.87;1.60;;;;;;;11.20;70.35;93641.00;5051812;28;20221;-85
2022/04/08 01:43:42;;;;;;;2.20;1.70;;;;;;;11.01;70.53;93604.66;5052074;28;20238;-85
2022/04/08 01:46:07;;;;;;;3.20;1.83;;;;;;;11.20;70.68;93648.09;5051804;28;20641;-84
2022/04/08 01:48:33;;;;;;;1.93;1.67;;;;;;;11.48;70.23;93673.47;5033770;28;20253;-85
2022/04/08 01:50:58;;;;;;;2.63;1.53;;;;;;;11.47;70.05;93680.59;5051455;28;20169;-85
2022/04/08 01:53:24;;;;;;;2.27;1.70;;;;;;;10.88;69.68;93582.94;5033364;28;20587;-85
2022/04/08 01:55:49;;;;;;;4.17;1.57;;;;;;;11.09;69.58;93585.81;5033358;28;20199;-85
2022/04/08 01:58:15;;;;;;;9.37;2.03;;;;;;;11.54;69.15;93686.47;5033891;28;20167;-84
2022/04/08 02:00:40;;;;;;;1.73;1.63;;;;;;;11.10;69.53;93622.44;5051665;28;20240;-85
2022/04/08 02:03:06;;;;;;;3.63;1.53;;;;;;;10.95;69.02;93599.34;5033761;28;20254;-85
2022/04/08 02:05:32;;;;;;;2.87;1.60;;;;;;;11.12;67.73;93619.56;5051869;28;20166;-84
2022/04/08 02:07:58;;;;;;;1.63;1.53;;;;;;;11.40;67.87;93658.91;5033439;28;20219;-85
2022/04/08 02:10:25;;;;;;;1.53;1.43;;;;;;;11.27;67.73;93638.97;5051595;28;20537;-84
2022/04/08 02:12:50;;;;;;;2.73;2.50;;;;;;;11.10;67.50;93613.72;5051765;28;20755;-84
2022/04/08 02:15:17;;;;;;;1.83;1.50;;;;;;;11.54;67.50;93677.75;5053952;28;20250;-85
2022/04/08 02:17:43;;;;;;;2.20;1.50;;;;;;;11.20;65.84;93635.72;5055164;28;20182;-84
2022/04/08 02:20:08;;;;;;;3.70;1.67;;;;;;;11.10;66.90;93608.47;5037324;28;20175;-84
2022/04/08 02:22:35;;;;;;;2.10;1.53;;;;;;;11.65;66.84;93698.72;5055092;28;20653;-84
2022/04/08 02:25:01;;;;;;;2.10;1.50;;;;;;;11.62;67.24;93696.56;5055550;28;20174;-84
2022/04/08 02:27:28;;;;;;;3.60;2.20;;;;;;;11.47;66.78;93672.69;5055015;28;20167;-84
2022/04/08 02:29:56;;;;;;;2.23;1.70;;;;;;;11.68;66.39;93708.78;5054670;28;20189;-84
2022/04/08 02:32:21;;;;;;;2.10;1.60;;;;;;;10.98;66.03;93604.09;5054515;28;20171;-85
2022/04/08 02:34:46;;;;;;;1.50;1.30;;;;;;;11.33;65.79;93703.06;5054159;28;20210;-84
2022/04/08 02:37:12;;;;;;;2.03;1.93;;;;;;;11.44;65.16;93707.41;5054498;28;20168;-84
2022/04/08 02:39:37;;;;;;;1.73;1.63;;;;;;;11.55;65.20;93709.16;5036899;28;20278;-83
2022/04/08 02:42:03;;;;;;;1.33;1.23;;;;;;;11.37;65.00;93679.66;5054636;28;20606;-85
2022/04/08 02:44:30;;;;;;;2.20;1.53;;;;;;;11.50;64.33;93701.16;5054940;28;20155;-85
2022/04/08 02:46:57;;;;;;;3.13;1.40;;;;;;;11.16;64.25;93665.41;5054636;28;20242;-84
2022/04/08 02:49:23;;;;;;;1.83;1.40;;;;;;;11.18;63.73;93652.81;5054531;28;20229;-84
2022/04/08 02:51:48;;;;;;;1.47;1.37;;;;;;;11.34;64.09;93678.31;5054601;28;20156;-84
2022/04/08 02:54:15;;;;;;;2.60;1.50;;;;;;;11.43;63.64;93692.66;5036507;28;20685;-85
2022/04/08 02:56:41;;;;;;;2.00;1.80;;;;;;;11.83;64.14;93749.59;5054967;28;20167;-85
2022/04/08 02:59:07;;;;;;;1.50;1.40;;;;;;;11.37;64.14;93679.66;5054467;28;20344;-84
2022/04/08 03:01:32;;;;;;;2.00;1.60;;;;;;;11.89;63.87;93777.59;5054671;28;20170;-85
2022/04/08 03:03:57;;;;;;;1.70;1.53;;;;;;;11.55;64.00;93724.97;5036372;28;20237;-86
2022/04/08 03:06:23;;;;;;;1.70;1.60;;;;;;;11.85;64.20;93771.25;5054268;28;20187;-84
2022/04/08 03:08:48;;;;;;;2.80;1.83;;;;;;;11.53;64.80;93740.22;5036102;28;20234;-85
2022/04/08 03:11:14;;;;;;;3.53;1.57;;;;;;;11.43;65.46;93753.25;5036311;28;20179;-84
2022/04/08 03:13:39;;;;;;;2.10;1.90;;;;;;;11.03;66.09;93713.19;5035965;28;20191;-84
2022/04/08 03:16:04;;;;;;;3.10;1.80;;;;;;;11.11;66.46;93710.94;5053603;28;20596;-84
2022/04/08 03:18:30;;;;;;;2.83;2.00;;;;;;;11.11;66.36;93723.31;5053530;28;20626;-84
2022/04/08 03:20:55;;;;;;;2.23;2.07;;;;;;;11.06;66.56;93731.94;5053710;28;20167;-84
2022/04/08 03:23:21;;;;;;;2.83;2.23;;;;;;;10.69;67.55;93692.16;5053942;28;20179;-83
2022/04/08 03:25:46;;;;;;;2.13;1.37;;;;;;;10.98;68.05;93774.47;5052916;28;20524;-83
2022/04/08 03:28:12;;;;;;;1.70;1.60;;;;;;;10.48;68.11;93698.09;5053844;28;20171;-83
2022/04/08 03:30:37;;;;;;;5.53;1.80;;;;;;;10.88;68.47;93772.47;5053776;28;20193;-84
2022/04/08 03:33:03;;;;;;;3.40;1.90;;;;;;;10.72;68.36;93743.53;5053748;28;20574;-84
2022/04/08 03:35:30;;;;;;;3.97;2.13;;;;;;;10.98;68.23;93807.91;5053655;28;20622;-85
2022/04/08 03:37:55;;;;;;;3.77;2.00;;;;;;;10.81;67.44;93769.19;5035835;28;20540;-85
2022/04/08 03:40:21;;;;;;;2.50;1.50;;;;;;;10.63;67.29;93732.59;5035777;28;20229;-84
2022/04/08 03:42:46;;;;;;;1.40;1.30;;;;;;;11.18;65.05;93803.75;5053569;28;20217;-85
2022/04/08 03:45:13;;;;;;;1.43;1.30;;;;;;;10.90;64.57;93738.00;5053492;28;20179;-84
2022/04/08 03:47:38;;;;;;;1.53;1.30;;;;;;;11.12;63.63;93762.56;5053818;28;20156;-84
2022/04/08 03:50:04;;;;;;;1.47;1.00;;;;;;;11.02;63.27;93738.72;5053749;28;20167;-84
2022/04/08 03:52:32;;;;;;;1.27;1.17;;;;;;;11.37;63.06;93820.09;5053304;28;20175;-85
2022/04/08 03:54:58;;;;;;;0.90;0.90;;;;;;;11.26;62.55;93787.53;5035651;28;20198;-87
2022/04/08 03:57:24;;;;;;;2.27;1.10;;;;;;;11.42;63.05;93828.06;5035199;28;20175;-86
2022/04/08 03:59:49;;;;;;;3.23;1.37;;;;;;;11.39;63.67;93820.66;5035016;28;20175;-86
2022/04/08 04:02:15;;;;;;;1.33;1.10;;;;;;;11.33;63.24;93803.97;5052741;28;20174;-86
2022/04/08 04:04:40;;;;;;;0.93;0.93;;;;;;;11.24;62.73;93794.88;5034929;28;20186;-85
2022/04/08 04:07:06;;;;;;;4.83;1.57;;;;;;;11.16;63.20;93768.13;5053085;28;20221;-84
2022/04/08 04:09:31;;;;;;;5.00;1.53;;;;;;;11.19;63.62;93780.84;5053057;28;20241;-85
2022/04/08 04:11:56;;;;;;;2.30;1.40;;;;;;;11.70;63.27;93853.50;5053228;28;20525;-85
2022/04/08 04:14:22;;;;;;;2.20;1.33;;;;;;;11.30;63.00;93791.28;5052858;28;20195;-86
2022/04/08 04:16:47;;;;;;;1.60;1.50;;;;;;;11.44;62.99;93815.44;5052915;28;20622;-86
2022/04/08 04:19:13;;;;;;;3.47;1.77;;;;;;;11.80;63.30;93869.50;5035123;28;20166;-85
2022/04/08 04:21:39;;;;;;;2.20;1.50;;;;;;;11.41;63.13;93813.31;5034959;28;20274;-85
2022/04/08 04:24:05;;;;;;;4.20;1.90;;;;;;;11.67;62.27;93814.47;5053239;28;20201;-84
2022/04/08 04:26:31;;;;;;;1.60;1.50;;;;;;;12.14;60.33;93828.03;5052554;28;20228;-85
2022/04/08 04:28:56;;;;;;;1.40;1.30;;;;;;;12.47;59.72;93829.72;5052955;28;20163;-85
2022/04/08 04:31:22;;;;;;;1.50;1.40;;;;;;;12.66;58.09;93801.16;5052638;28;20657;-86
2022/04/08 04:33:47;;;;;;;1.90;1.30;;;;;;;13.16;57.25;93840.47;5052750;28;20252;-85
2022/04/08 04:36:13;;;;;;;2.23;1.30;;;;;;;14.10;56.09;93898.78;5034977;28;20171;-86
2022/04/08 04:38:38;;;;;;;3.03;1.50;;;;;;;14.35;54.55;93834.59;5052336;28;20288;-86
2022/04/08 04:41:04;;;;;;;5.33;2.27;;;;;;;14.81;52.44;93838.22;5052604;28;20163;-86
2022/04/08 04:43:30;;;;;;;7.23;2.40;;;;;;;15.38;50.71;93864.56;5051957;28;20187;-86
2022/04/08 04:45:55;;;;;;;4.60;2.10;;;;;;;15.33;51.05;93834.56;5051813;28;20175;-86
2022/04/08 04:48:22;;;;;;;1.90;1.53;;;;;;;15.76;50.13;93854.47;5033831;28;20256;-86
2022/04/08 04:50:48;;;;;;;2.50;2.30;;;;;;;16.58;49.39;93916.97;5050028;28;20226;-86
2022/04/08 04:53:13;;;;;;;4.17;1.80;;;;;;;16.78;47.96;93871.72;5051594;28;20198;-85
2022/04/08 04:55:39;;;;;;;3.17;1.70;;;;;;;17.44;46.26;93886.53;5051612;28;20175;-86
2022/04/08 04:58:04;;;;;;;2.00;1.60;;;;;;;18.20;44.87;93876.03;5034127;28;20266;-86
2022/04/08 05:00:30;;;;;;;4.88;1.58;;;;;;;18.82;42.51;93832.44;5051918;28;20911;-86
2022/04/08 05:02:55;;;;;;;4.57;1.95;;;;;;;20.38;40.58;93893.63;5034336;28;20178;-86
2022/04/08 05:05:21;;;;;;;4.25;2.05;;;;;;;21.71;37.92;93915.50;5052079;28;20176;-86
2022/04/08 05:07:46;;;;;;;4.07;3.25;;;;;;;22.48;36.59;93887.66;5052047;28;20246;-87
2022/04/08 05:10:11;;;;;;;851.20;513.75;;;;;;;23.84;34.25;93922.47;5045665;28;20548;-84
2022/04/08 05:12:37;;;;;;;1999.90;999.90;;;;;;;25.00;32.45;93942.06;5051387;28;20171;-84
2022/04/08 05:15:09;;;;;;;1999.90;999.90;;;;;;;25.36;30.69;93926.19;5051319;28;20179;-84
2022/04/08 05:17:35;;;;;;;1999.90;999.90;;;;;;;25.93;29.15;93947.28;5050045;28;20178;-84
2022/04/08 05:20:05;;;;;;;1999.90;999.90;;;;;;;26.67;27.86;93968.06;5051895;28;20309;-84
2022/04/08 05:22:31;;;;;;;1999.90;999.90;;;;;;;27.11;27.69;93955.69;5034092;28;20645;-84
2022/04/08 05:24:58;;;;;;;1999.90;999.90;;;;;;;27.22;27.13;93951.41;5051350;28;20172;-84
2022/04/08 05:27:23;;;;;;;1999.90;999.90;;;;;;;27.69;26.83;93932.81;5051263;28;20190;-85
2022/04/08 05:29:49;;;;;;;1999.90;999.90;;;;;;;28.30;26.52;93980.63;5050898;28;20185;-84
2022/04/08 05:32:14;;;;;;;1999.90;999.90;;;;;;;28.15;26.07;93933.38;5051067;28;20249;-85
2022/04/08 05:34:40;;;;;;;1999.90;999.90;;;;;;;28.37;25.46;93921.22;5050730;28;20241;-85
2022/04/08 05:37:05;;;;;;;1999.90;999.90;;;;;;;29.32;25.13;93952.00;5051052;28;20555;-85
2022/04/08 05:39:30;;;;;;;1999.90;999.90;;;;;;;30.29;23.61;93976.31;5033932;28;20171;-85
2022/04/08 05:41:56;;;;;;;1999.90;999.90;;;;;;;30.60;22.10;93914.88;5051711;28;20167;-86
2022/04/08 05:44:21;;;;;;;1999.90;999.90;;;;;;;30.39;22.15;93915.22;5051792;28;20148;-85
2022/04/08 05:46:46;;;;;;;1999.90;999.90;;;;;;;30.53;21.47;93912.78;5051799;28;20163;-85
2022/04/08 05:49:12;;;;;;;1999.90;999.90;;;;;;;31.17;20.35;93959.41;5052010;28;20652;-85
2022/04/08 05:51:37;;;;;;;1999.90;999.90;;;;;;;30.91;21.04;93941.06;5052523;28;20163;-85
2022/04/08 05:54:03;;;;;;;1999.90;999.90;;;;;;;31.62;21.39;93964.06;5053980;28;20206;-85
2022/04/08 05:56:28;;;;;;;1999.90;999.90;;;;;;;32.25;21.10;93941.63;5037099;28;20249;-85
2022/04/08 05:58:54;;;;;;;1999.90;999.90;;;;;;;32.66;21.30;93964.31;5054440;28;20224;-85
2022/04/08 06:01:19;;;;;;;1999.90;999.90;;;;;;;32.82;20.20;93964.91;5035684;28;20175;-86
2022/04/08 06:03:44;;;;;;;1999.90;999.90;;;;;;;33.38;20.77;93991.22;5054799;28;20656;-85
2022/04/08 06:06:10;;;;;;;1999.90;999.90;;;;;;;32.95;19.83;93934.25;5054880;28;20168;-85
2022/04/08 06:08:35;;;;;;;1999.90;999.90;;;;;;;32.87;20.14;93921.72;5054865;28;20352;-84
2022/04/08 06:11:00;;;;;;;1999.90;999.90;;;;;;;32.95;20.47;93944.41;5054834;28;20580;-86
2022/04/08 06:13:26;;;;;;;1999.90;999.90;;;;;;;32.83;19.71;93922.84;5051588;28;20191;-89
2022/04/08 06:15:52;;;;;;;1999.90;999.90;;;;;;;32.89;18.39;93897.56;5036783;28;20171;-86
2022/04/08 06:18:19;;;;;;;1999.90;999.90;;;;;;;33.67;18.10;93984.81;5036691;28;20175;-89
2022/04/08 06:20:45;;;;;;;1999.90;999.90;;;;;;;33.58;18.61;93985.16;5054917;28;20167;-87
2022/04/08 06:23:10;;;;;;;1999.90;999.90;;;;;;;33.03;19.09;93989.69;5054354;28;20544;-85
2022/04/08 06:25:36;;;;;;;1999.90;999.90;;;;;;;32.54;17.96;93943.53;5053627;28;20665;-85
2022/04/08 06:28:06;;;;;;;1999.90;999.90;;;;;;;32.18;18.62;93989.41;5054822;28;20171;-86
2022/04/08 06:30:38;;;;;;;1999.90;999.90;;;;;;;31.77;19.77;93990.34;5054952;28;20258;-85
2022/04/08 06:33:05;;;;;;;1999.90;999.90;;;;;;;31.18;20.62;93988.19;5054364;28;20688;-85
2022/04/08 06:35:32;;;;;;;1999.90;999.90;;;;;;;30.55;20.42;93934.97;5035792;28;20175;-85
2022/04/08 06:38:02;;;;;;;1999.90;999.90;;;;;;;29.36;20.33;93958.31;5036382;28;20597;-87
2022/04/08 06:40:28;;;;;;;1999.90;999.90;;;;;;;28.58;22.17;93958.97;5036521;28;20202;-87
2022/04/08 06:42:59;;;;;;;1999.90;999.90;;;;;;;27.32;22.89;93923.94;5036207;28;20213;-86
2022/04/08 06:45:26;;;;;;;1999.90;999.90;;;;;;;26.52;23.85;93993.78;5035815;28;20730;-86
2022/04/08 06:47:53;;;;;;;1999.90;999.90;;;;;;;25.71;27.24;93940.28;5035721;28;20872;-84
2022/04/08 06:50:18;;;;;;;1999.90;999.90;;;;;;;25.51;25.58;93994.94;5053533;28;20175;-84
2022/04/08 06:52:44;;;;;;;1999.90;999.90;;;;;;;24.77;26.92;93942.28;5053801;28;20613;-83
2022/04/08 06:55:10;;;;;;;1999.90;999.90;;;;;;;24.94;27.74;93951.44;5053590;28;20206;-83
2022/04/08 06:57:36;;;;;;;1999.90;999.90;;;;;;;25.12;26.77;93972.59;5049444;28;20191;-82
2022/04/08 07:00:08;;;;;;;1999.90;999.90;;;;;;;25.09;26.58;93994.78;5053316;28;20243;-82
2022/04/08 07:02:33;;;;;;;1999.90;999.90;;;;;;;25.07;27.87;93988.16;5053459;28;20195;-82
2022/04/08 07:04:59;;;;;;;1999.90;999.90;;;;;;;24.78;27.07;93956.53;5053390;28;20182;-83
2022/04/08 07:07:31;;;;;;;1999.90;999.90;;;;;;;25.05;27.66;93987.69;5053110;28;20197;-82
2022/04/08 07:09:57;;;;;;;1883.13;999.90;;;;;;;24.75;27.76;93971.41;5052986;28;20249;-82
2022/04/08 07:12:26;;;;;;;1198.15;999.90;;;;;;;24.68;28.77;94002.63;5052566;28;20246;-82
2022/04/08 07:14:52;;;;;;;80.70;76.85;;;;;;;24.40;29.17;93981.47;5047086;28;20187;-82
2022/04/08 07:17:29;;;;;;;3.85;3.45;;;;;;;24.44;28.82;93973.56;5034913;28;20185;-80
2022/04/08 07:19:55;;;;;;;5.45;3.65;;;;;;;24.55;29.03;94017.09;5034607;28;20255;-80
2022/04/08 07:22:21;;;;;;;3.50;2.88;;;;;;;24.34;28.83;94001.56;5051725;28;20671;-80
2022/04/08 07:24:47;;;;;;;6.43;3.40;;;;;;;24.31;28.20;94004.91;5052269;28;20175;-80
2022/04/08 07:27:12;;;;;;;4.57;2.58;;;;;;;24.18;29.08;94035.41;5050286;28;20179;-80
2022/04/08 07:29:37;;;;;;;2.45;2.00;;;;;;;23.89;29.69;94017.19;5052504;28;20182;-80
2022/04/08 07:32:03;;;;;;;4.50;2.20;;;;;;;23.36;30.90;93982.44;5052712;28;20175;-81
2022/04/08 07:34:29;;;;;;;2.83;1.90;;;;;;;23.41;30.18;93994.94;5052765;28;20580;-80
2022/04/08 07:36:54;;;;;;;2.38;1.70;;;;;;;23.76;31.12;94018.13;5033456;28;20206;-80
2022/04/08 07:39:19;;;;;;;2.95;1.95;;;;;;;24.06;30.27;94032.56;5050260;28;20193;-81
2022/04/08 07:41:45;;;;;;;2.38;1.80;;;;;;;23.56;29.28;94007.97;5053149;28;20195;-82
2022/04/08 07:44:10;;;;;;;2.80;2.15;;;;;;;23.75;28.71;94039.94;5052146;28;20198;-80
2022/04/08 07:46:36;;;;;;;4.20;2.03;;;;;;;23.63;29.80;94022.53;5051414;28;20246;-78
2022/04/08 07:49:01;;;;;;;2.33;1.77;;;;;;;23.60;29.87;94030.44;5051752;28;20281;-82
2022/04/08 07:51:26;;;;;;;2.60;2.40;;;;;;;23.46;30.56;94062.75;5051751;28;20246;-81
2022/04/08 07:53:52;;;;;;;3.42;1.83;;;;;;;23.53;30.96;94054.25;5052428;28;20192;-83
2022/04/08 07:56:17;;;;;;;3.05;2.17;;;;;;;23.38;30.32;94038.53;5052850;28;20175;-83
2022/04/08 07:58:45;;;;;;;2.35;2.15;;;;;;;23.31;30.29;94001.38;5052340;28;20167;-82
2022/04/08 08:01:11;;;;;;;3.08;2.10;;;;;;;23.32;30.29;94019.88;5031076;28;20182;-82
2022/04/08 08:03:36;;;;;;;1.90;1.67;;;;;;;22.99;29.36;93985.63;5052386;28;20570;-83
2022/04/08 08:06:03;;;;;;;2.08;1.73;;;;;;;22.91;29.90;94060.44;5052139;28;20214;-82
2022/04/08 08:08:28;;;;;;;2.90;1.73;;;;;;;22.85;30.40;94058.97;5052441;28;20319;-82
2022/04/08 08:10:55;;;;;;;3.25;1.95;;;;;;;22.77;31.19;94061.59;5052236;28;20167;-80
2022/04/08 08:13:21;;;;;;;2.85;1.77;;;;;;;22.97;32.46;94069.16;5051463;28;20187;-81
2022/04/08 08:15:46;;;;;;;4.30;2.58;;;;;;;23.10;32.50;94043.31;5052179;28;20197;-81
2022/04/08 08:18:12;;;;;;;3.75;1.80;;;;;;;23.22;31.87;94062.34;5052087;28;20228;-79
2022/04/08 08:20:37;;;;;;;1.52;1.40;;;;;;;23.27;29.99;94032.63;5051781;28;20201;-82
2022/04/08 08:23:06;;;;;;;2.30;1.70;;;;;;;23.35;32.43;94007.72;5033137;28;20198;-92
2022/04/08 08:25:31;;;;;;;3.60;1.85;;;;;;;23.35;31.36;93975.50;5035370;28;20665;-90
2022/04/08 08:28:01;;;;;;;3.60;2.38;;;;;;;24.18;30.54;94078.47;5035205;28;20195;-82
2022/04/08 08:30:29;;;;;;;6.32;2.10;;;;;;;24.01;30.93;94073.84;5049253;28;20175;-85
2022/04/08 08:32:54;;;;;;;3.95;2.33;;;;;;;23.33;31.59;94008.03;5032252;28;20175;-87
2022/04/08 08:35:20;;;;;;;5.95;2.47;;;;;;;23.18;31.54;94051.41;5033288;28;20178;-84
2022/04/08 08:37:48;;;;;;;2.22;1.60;;;;;;;23.03;32.06;94077.88;5050792;28;20175;-85
2022/04/08 08:40:15;;;;;;;5.13;1.80;;;;;;;23.05;30.77;94051.50;5031164;28;20179;-85
2022/04/08 08:42:42;;;;;;;2.70;1.70;;;;;;;23.14;33.45;94071.13;5050000;28;20662;-86
2022/04/08 08:45:10;;;;;;;2.47;1.83;;;;;;;22.72;33.28;93995.41;5032345;28;20165;-85
2022/04/08 08:47:36;;;;;;;2.88;1.67;;;;;;;23.03;33.08;94084.03;5049353;28;20662;-85
2022/04/08 08:50:02;;;;;;;3.22;1.80;;;;;;;23.00;32.84;94083.88;5051434;28;20297;-86
2022/04/08 08:52:28;;;;;;;4.80;1.45;;;;;;;23.13;33.34;94088.34;5032261;28;20176;-86
2022/04/08 08:54:54;;;;;;;2.17;1.80;;;;;;;23.18;32.03;94090.88;5049306;28;20199;-86
2022/04/08 08:57:22;;;;;;;3.72;1.40;;;;;;;22.84;34.02;94035.91;5049529;28;20224;-85
2022/04/08 08:59:51;;;;;;;3.03;1.20;;;;;;;23.22;32.45;94098.03;5049207;28;20175;-86
2022/04/08 09:02:19;;;;;;;3.08;1.75;;;;;;;22.89;32.57;94048.44;5048329;28;20313;-86
2022/04/08 09:04:45;;;;;;;3.08;1.85;;;;;;;22.66;34.48;94046.84;5030342;28;20175;-86
2022/04/08 09:07:25;;;;;;;2.35;1.60;;;;;;;22.64;33.47;94068.59;5048956;28;20167;-86
2022/04/08 09:09:54;;;;;;;2.05;1.27;;;;;;;22.43;32.75;94054.06;5030928;28;20254;-86
2022/04/08 09:12:26;;;;;;;1.83;1.50;;;;;;;22.48;34.78;94097.69;5030120;28;20179;-86
2022/04/08 09:14:53;;;;;;;5.47;2.42;;;;;;;22.80;35.24;94090.53;5031773;28;20712;-87
2022/04/08 09:17:20;;;;;;;1.88;1.67;;;;;;;22.82;34.50;94030.06;5049744;28;20202;-86
2022/04/08 09:19:50;;;;;;;1.65;1.55;;;;;;;23.30;32.71;94080.38;5031877;28;20182;-85
2022/04/08 09:22:16;;;;;;;7.80;1.80;;;;;;;23.05;31.99;94078.34;5049014;28;20179;-85
2022/04/08 09:24:42;;;;;;;1.45;1.35;;;;;;;22.67;33.93;94010.84;5049571;28;20187;-85
2022/04/08 09:27:08;;;;;;;4.40;1.85;;;;;;;22.65;33.71;94008.47;5053319;28;20171;-86
2022/04/08 09:29:34;;;;;;;3.13;1.58;;;;;;;23.10;35.69;94088.97;5050623;28;20333;-85
2022/04/08 09:31:59;;;;;;;2.58;1.30;;;;;;;22.70;36.00;94039.75;5035592;28;20559;-85
2022/04/08 09:34:25;;;;;;;2.42;1.80;;;;;;;23.10;36.78;94083.59;5035948;28;20202;-85
2022/04/08 09:36:51;;;;;;;5.28;2.40;;;;;;;23.01;36.55;94082.75;5053752;28;20175;-85
2022/04/08 09:39:17;;;;;;;1.55;1.38;;;;;;;23.02;36.05;94084.34;5035577;28;20261;-86
2022/04/08 09:41:45;;;;;;;4.57;1.67;;;;;;;22.97;34.70;94079.91;5035451;28;20169;-85
2022/04/08 09:44:13;;;;;;;8.13;1.77;;;;;;;22.84;36.84;94072.69;5053621;28;20174;-86
2022/04/08 09:46:39;;;;;;;2.38;1.65;;;;;;;22.52;37.64;94025.44;5053422;28;20526;-85
2022/04/08 09:49:06;;;;;;;5.15;1.60;;;;;;;22.19;36.39;93998.84;5035606;28;20237;-86
2022/04/08 09:51:39;;;;;;;1.52;1.42;;;;;;;22.11;37.01;93996.09;5053510;28;20178;-86
2022/04/08 09:54:08;;;;;;;3.47;1.40;;;;;;;22.20;36.91;94019.22;5051872;28;20597;-86
2022/04/08 09:56:35;;;;;;;3.05;1.25;;;;;;;22.42;36.21;94077.41;5034580;28;20182;-85
2022/04/08 09:59:14;;;;;;;1.67;1.48;;;;;;;22.26;36.65;94070.03;5050018;28;20535;-85
2022/04/08 10:01:44;;;;;;;2.13;1.30;;;;;;;21.72;39.08;94018.09;5052570;28;20650;-86
2022/04/08 10:04:10;;;;;;;2.47;2.05;;;;;;;21.89;35.75;94037.03;5053082;28;20170;-86
2022/04/08 10:06:37;;;;;;;4.25;1.90;;;;;;;21.79;37.30;94062.16;5052884;28;20190;-86
2022/04/08 10:09:05;;;;;;;4.45;1.35;;;;;;;21.49;37.78;94008.41;5053068;28;20592;-86
2022/04/08 10:11:50;;;;;;;1.90;1.80;;;;;;;21.70;37.59;94047.91;5052545;28;20186;-85
2022/04/08 10:14:28;;;;;;;3.67;1.67;;;;;;;21.16;39.10;93967.56;5053193;28;20202;-85
2022/04/08 10:16:55;;;;;;;2.42;1.38;;;;;;;21.27;39.06;93995.75;5053065;28;20178;-85
2022/04/08 10:19:23;;;;;;;7.07;1.55;;;;;;;21.28;36.77;94000.00;5053855;28;20551;-85
2022/04/08 10:21:53;;;;;;;2.03;1.70;;;;;;;21.59;38.34;94053.75;5051477;28;20167;-85
2022/04/08 10:24:27;;;;;;;2.08;1.65;;;;;;;21.08;40.21;94018.03;5053918;28;20203;-85
2022/04/08 10:27:09;;;;;;;2.00;1.70;;;;;;;20.79;39.22;94051.47;5052902;28;20194;-85
2022/04/08 10:29:36;;;;;;;2.83;1.77;;;;;;;20.46;38.05;93973.94;5034282;28;20170;-85
2022/04/08 10:32:05;;;;;;;2.80;1.55;;;;;;;20.48;36.09;93966.41;5050638;28;20190;-85
2022/04/08 10:34:35;;;;;;;1.65;1.40;;;;;;;20.80;34.79;93997.69;5051701;28;20269;-85
2022/04/08 10:37:01;;;;;;;2.53;1.33;;;;;;;21.15;37.20;94020.31;5051821;28;20232;-85
2022/04/08 10:39:27;;;;;;;1.60;1.50;;;;;;;21.30;37.00;94036.09;5051715;28;20189;-86
2022/04/08 10:42:00;;;;;;;1.98;1.48;;;;;;;21.39;35.13;94037.00;5052066;28;20167;-86
2022/04/08 10:44:31;;;;;;;1.45;1.35;;;;;;;20.99;35.15;93993.03;5033871;28;20529;-86
2022/04/08 10:46:59;;;;;;;1.40;1.30;;;;;;;21.32;36.07;94025.91;5033803;28;20217;-86
2022/04/08 10:49:25;;;;;;;2.08;1.27;;;;;;;20.98;37.77;93947.84;5034692;28;20182;-86
2022/04/08 10:51:50;;;;;;;2.92;1.30;;;;;;;20.97;33.40;93941.69;5052500;28;20577;-86
2022/04/08 10:54:17;;;;;;;3.10;1.65;;;;;;;21.41;36.18;94000.00;5051473;28;20694;-86
2022/04/08 10:56:42;;;;;;;3.03;1.42;;;;;;;21.52;34.46;94008.63;5033783;28;20163;-85
2022/04/08 10:59:08;;;;;;;1.77;1.35;;;;;;;21.54;35.02;94011.78;5052724;28;20186;-85
2022/04/08 11:01:45;;;;;;;4.20;1.55;;;;;;;21.06;34.81;93947.16;5053864;28;20760;-85
2022/04/08 11:04:10;;;;;;;1.25;1.20;;;;;;;21.20;34.07;93968.56;5035227;28;20276;-85
2022/04/08 11:06:36;;;;;;;1.42;1.27;;;;;;;21.31;34.84;93976.09;5033269;28;20179;-85
2022/04/08 11:09:05;;;;;;;3.53;1.70;;;;;;;21.09;34.78;93925.16;5051497;28;20762;-85
2022/04/08 11:11:33;;;;;;;3.30;1.38;;;;;;;21.53;32.35;94004.06;5051489;28;20597;-85
2022/04/08 11:14:00;;;;;;;2.17;1.50;;;;;;;21.30;34.10;93965.69;5033586;28;20685;-86
2022/04/08 11:16:31;;;;;;;4.22;1.50;;;;;;;21.39;34.05;93982.63;5033619;28;20181;-85
2022/04/08 11:18:57;;;;;;;2.53;1.63;;;;;;;21.71;35.43;94022.66;5033450;28;20257;-85
2022/04/08 11:21:25;;;;;;;2.80;1.58;;;;;;;21.41;36.28;93967.88;5033394;28;20167;-85
2022/04/08 11:24:02;;;;;;;2.92;1.40;;;;;;;21.81;32.02;94024.34;5050260;28;20171;-85